createdAt,value
2023-12-13T00:01:43.815Z,0.35
2023-12-13T00:04:13.038Z,0.25
2023-12-13T00:06:43.046Z,0.20
2023-12-13T00:09:10.834Z,1.15
2023-12-13T00:11:40.829Z,0.35
2023-12-13T00:14:09.922Z,0.47
2023-12-13T00:16:38.526Z,0.22
2023-12-13T00:19:07.356Z,0.30
2023-12-13T00:21:37.174Z,0.40
2023-12-13T00:24:08.529Z,0.30
2023-12-13T00:26:36.236Z,0.52
2023-12-13T00:29:04.204Z,0.38
2023-12-13T00:31:35.194Z,0.32
2023-12-13T00:34:05.962Z,0.30
2023-12-13T00:36:34.011Z,0.30
2023-12-13T00:39:04.205Z,1.23
2023-12-13T00:41:34.323Z,0.38
2023-12-13T00:44:02.305Z,0.20
2023-12-13T00:46:30.022Z,0.85
2023-12-13T00:48:57.845Z,0.20
2023-12-13T00:51:25.555Z,0.57
2023-12-13T00:53:53.342Z,0.40
2023-12-13T00:56:22.339Z,0.10
2023-12-13T00:58:50.060Z,0.80
2023-12-13T01:01:18.045Z,0.55
2023-12-13T01:03:46.168Z,0.20
2023-12-13T01:06:13.917Z,0.28
2023-12-13T01:08:41.680Z,0.57
2023-12-13T01:11:10.053Z,0.73
2023-12-13T01:13:39.508Z,0.30
2023-12-13T01:16:07.516Z,0.30
2023-12-13T01:18:36.585Z,0.40
2023-12-13T01:21:04.520Z,0.30
2023-12-13T01:23:32.247Z,0.30
2023-12-13T01:26:02.224Z,0.60
2023-12-13T01:28:29.968Z,0.28
2023-12-13T01:30:59.585Z,0.20
2023-12-13T01:33:27.450Z,1.05
2023-12-13T01:35:55.286Z,2.72
2023-12-13T01:38:22.983Z,6.00
2023-12-13T01:41:10.511Z,4.93
2023-12-13T01:43:42.092Z,8.85
2023-12-13T01:46:11.693Z,3.97
2023-12-13T01:48:39.798Z,7.82
2023-12-13T01:51:08.644Z,7.05
2023-12-13T01:53:36.670Z,3.28
2023-12-13T01:56:04.941Z,3.60
2023-12-13T01:58:33.477Z,1.60
2023-12-13T02:01:03.565Z,2.88
2023-12-13T02:03:35.468Z,3.45
2023-12-13T02:06:05.065Z,3.78
2023-12-13T02:08:33.084Z,2.40
2023-12-13T02:11:00.913Z,0.93
2023-12-13T02:13:28.691Z,0.93
2023-12-13T02:15:56.513Z,0.60
2023-12-13T02:18:24.412Z,0.77
2023-12-13T02:20:55.710Z,0.50
2023-12-13T02:23:23.773Z,0.22
2023-12-13T02:25:57.006Z,0.63
2023-12-13T02:28:27.413Z,1.65
2023-12-13T02:30:56.198Z,1.33
2023-12-13T02:33:24.947Z,0.55
2023-12-13T02:35:52.847Z,1.38
2023-12-13T02:38:20.520Z,0.60
2023-12-13T02:40:51.893Z,0.43
2023-12-13T02:43:19.760Z,2.03
2023-12-13T02:45:47.623Z,0.57
2023-12-13T02:48:15.497Z,1.02
2023-12-13T02:50:43.273Z,0.40
2023-12-13T02:53:11.077Z,0.70
2023-12-13T02:55:41.015Z,0.50
2023-12-13T02:58:10.139Z,0.80
2023-12-13T03:00:37.794Z,0.50
2023-12-13T03:03:06.031Z,1.73
2023-12-13T03:05:33.818Z,1.33
2023-12-13T03:08:03.790Z,1.50
2023-12-13T03:10:31.563Z,1.38
2023-12-13T03:12:59.252Z,0.95
2023-12-13T03:15:28.387Z,0.88
2023-12-13T03:17:56.242Z,1.58
2023-12-13T03:20:24.110Z,1.38
2023-12-13T03:22:54.156Z,0.77
2023-12-13T03:25:24.429Z,2.17
2023-12-13T03:27:52.496Z,1.33
2023-12-13T03:30:20.136Z,1.38
2023-12-13T03:32:49.578Z,1.08
2023-12-13T03:35:17.389Z,1.48
2023-12-13T03:37:45.144Z,1.20
2023-12-13T03:40:13.670Z,0.47
2023-12-13T03:42:41.712Z,0.43
2023-12-13T03:45:11.693Z,0.47
2023-12-13T03:47:39.754Z,0.50
2023-12-13T03:50:10.301Z,1.15
2023-12-13T03:52:38.108Z,0.80
2023-12-13T03:55:06.272Z,0.65
2023-12-13T03:57:34.270Z,0.90
2023-12-13T04:00:04.969Z,0.95
2023-12-13T04:02:40.390Z,0.50
2023-12-13T04:05:11.996Z,0.95
2023-12-13T04:07:39.767Z,0.50
2023-12-13T04:10:07.931Z,1.17
2023-12-13T04:12:35.633Z,1.15
2023-12-13T04:15:06.001Z,1.35
2023-12-13T04:17:36.459Z,0.85
2023-12-13T04:20:04.788Z,0.55
2023-12-13T04:22:36.117Z,1.52
2023-12-13T04:25:03.864Z,0.38
2023-12-13T04:27:31.786Z,0.30
2023-12-13T04:29:59.562Z,0.55
2023-12-13T04:32:27.271Z,1.00
2023-12-13T04:34:59.155Z,2.40
2023-12-13T04:37:27.038Z,2.58
2023-12-13T04:39:56.088Z,2.53
2023-12-13T04:42:26.139Z,2.03
2023-12-13T04:44:54.606Z,1.25
2023-12-13T04:47:24.803Z,2.83
2023-12-13T04:49:52.557Z,0.73
2023-12-13T04:52:20.301Z,2.33
2023-12-13T04:54:48.013Z,1.45
2023-12-13T04:57:17.026Z,0.95
2023-12-13T04:59:44.755Z,1.02
2023-12-13T05:02:11.408Z,1.63
2023-12-13T05:04:39.202Z,2.38
2023-12-13T05:07:09.975Z,4.32
2023-12-13T05:09:37.716Z,1.60
2023-12-13T05:12:05.732Z,2.10
2023-12-13T05:14:34.187Z,0.65
2023-12-13T05:17:01.854Z,1.45
2023-12-13T05:19:29.707Z,1.75
2023-12-13T05:21:59.562Z,1.83
2023-12-13T05:24:27.257Z,0.90
2023-12-13T05:26:57.227Z,1.23
2023-12-13T05:29:26.972Z,1.88
2023-12-13T05:31:57.852Z,4.30
2023-12-13T05:34:29.126Z,8.02
2023-12-13T05:36:56.940Z,5.18
2023-12-13T05:39:24.605Z,2.05
2023-12-13T05:41:52.810Z,2.30
2023-12-13T05:44:20.485Z,0.40
2023-12-13T05:46:48.203Z,1.27
2023-12-13T05:49:17.376Z,3.17
2023-12-13T05:51:45.160Z,2.25
2023-12-13T05:54:15.184Z,1.95
2023-12-13T05:56:42.983Z,3.92
2023-12-13T05:59:12.163Z,2.13
2023-12-13T06:01:40.153Z,2.35
2023-12-13T06:04:10.032Z,0.57
2023-12-13T06:06:45.060Z,2.75
2023-12-13T06:09:12.789Z,4.00
2023-12-13T06:11:40.607Z,3.70
2023-12-13T06:14:08.814Z,2.22
2023-12-13T06:16:36.593Z,3.38
2023-12-13T06:19:04.656Z,2.83
2023-12-13T06:21:34.322Z,2.47
2023-12-13T06:24:05.143Z,1.42
2023-12-13T06:26:32.906Z,1.33
2023-12-13T06:29:02.955Z,1.48
2023-12-13T06:31:32.992Z,0.43
2023-12-13T06:34:03.804Z,3.05
2023-12-13T06:36:31.644Z,0.82
2023-12-13T06:38:59.303Z,0.40
2023-12-13T06:41:28.606Z,0.60
2023-12-13T06:43:56.335Z,1.98
2023-12-13T06:46:24.208Z,0.70
2023-12-13T06:48:52.840Z,0.50
2023-12-13T06:51:20.701Z,0.90
2023-12-13T06:53:48.586Z,1.13
2023-12-13T06:56:16.299Z,0.75
2023-12-13T06:58:47.727Z,1.70
2023-12-13T07:01:15.608Z,1.67
2023-12-13T07:03:43.858Z,5.90
2023-12-13T07:06:11.662Z,14.73
2023-12-13T07:08:39.407Z,15.23
2023-12-13T07:11:07.234Z,13.77
2023-12-13T07:13:35.266Z,5.35
2023-12-13T07:16:04.934Z,5.60
2023-12-13T07:18:32.679Z,4.03
2023-12-13T07:21:00.404Z,4.20
2023-12-13T07:23:33.000Z,5.00
2023-12-13T07:26:00.898Z,1.42
2023-12-13T07:28:30.932Z,2.15
2023-12-13T07:31:08.310Z,2.67
2023-12-13T07:36:09.071Z,1.77
2023-12-13T07:38:36.785Z,1.60
2023-12-13T07:41:04.452Z,3.65
2023-12-13T07:43:32.901Z,4.28
2023-12-13T07:46:02.754Z,3.35
2023-12-13T07:48:31.419Z,3.10
2023-12-13T07:50:59.924Z,3.17
2023-12-13T07:53:29.287Z,3.58
2023-12-13T07:55:57.036Z,2.08
2023-12-13T07:58:24.857Z,2.17
2023-12-13T08:00:52.598Z,1.50
2023-12-13T08:03:22.603Z,3.63
2023-12-13T08:05:53.396Z,5.05
2023-12-13T08:08:23.578Z,4.05
2023-12-13T08:10:54.116Z,3.55
2023-12-13T08:13:22.141Z,2.30
2023-12-13T08:15:49.920Z,2.03
2023-12-13T08:18:17.784Z,3.22
2023-12-13T08:20:45.559Z,2.72
2023-12-13T08:23:15.939Z,2.20
2023-12-13T08:25:43.725Z,3.22
2023-12-13T08:28:12.833Z,3.67
2023-12-13T08:30:40.686Z,2.90
2023-12-13T08:33:08.516Z,3.75
2023-12-13T08:35:36.441Z,3.20
2023-12-13T08:38:04.107Z,3.25
2023-12-13T08:40:34.128Z,2.42
2023-12-13T08:43:03.995Z,4.78
2023-12-13T08:45:35.367Z,3.97
2023-12-13T08:48:05.465Z,3.17
2023-12-13T08:50:33.209Z,2.35
2023-12-13T08:53:01.031Z,4.20
2023-12-13T08:55:28.862Z,4.82
2023-12-13T08:57:56.571Z,1.40
2023-12-13T09:00:24.402Z,2.22
2023-12-13T09:02:55.775Z,0.57
2023-12-13T09:05:23.671Z,0.38
2023-12-13T09:07:51.450Z,0.30
2023-12-13T09:10:19.379Z,0.30
2023-12-13T09:12:47.068Z,2.38
2023-12-13T09:15:14.821Z,0.77
2023-12-13T09:17:46.586Z,0.25
2023-12-13T09:20:18.036Z,2.15
2023-12-13T09:22:45.907Z,0.25
2023-12-13T09:25:15.611Z,0.35
2023-12-13T09:27:47.803Z,0.17
2023-12-13T09:30:16.124Z,0.43
2023-12-13T09:32:46.195Z,0.28
2023-12-13T09:35:15.716Z,0.50
2023-12-13T09:37:47.211Z,0.40
2023-12-13T09:40:18.303Z,1.20
2023-12-13T09:42:47.615Z,1.58
2023-12-13T09:45:21.713Z,0.22
2023-12-13T09:47:50.809Z,0.50
2023-12-13T09:50:18.793Z,0.17
2023-12-13T09:52:51.283Z,0.20
2023-12-13T09:55:19.336Z,1.10
2023-12-13T09:57:47.150Z,0.13
2023-12-13T10:00:15.194Z,0.30
2023-12-13T10:02:46.279Z,0.30
2023-12-13T10:05:18.584Z,0.68
2023-12-13T10:07:46.889Z,0.70
2023-12-13T10:10:17.126Z,0.22
2023-12-13T10:12:44.932Z,0.40
2023-12-13T10:15:15.310Z,0.65
2023-12-13T10:17:43.884Z,0.30
2023-12-13T10:20:14.119Z,1.25
2023-12-13T10:22:41.865Z,0.68
2023-12-13T10:25:11.559Z,2.45
2023-12-13T10:27:43.073Z,2.95
2023-12-13T10:30:11.864Z,8.93
2023-12-13T10:32:39.672Z,4.05
2023-12-13T10:35:08.110Z,5.22
2023-12-13T10:37:36.835Z,0.82
2023-12-13T10:40:05.683Z,1.73
2023-12-13T10:42:38.288Z,0.30
2023-12-13T10:45:12.089Z,0.65
2023-12-13T10:47:43.968Z,0.90
2023-12-13T10:50:14.354Z,0.80
2023-12-13T10:52:45.083Z,1.73
2023-12-13T10:55:16.302Z,1.17
2023-12-13T10:57:44.256Z,0.50
2023-12-13T11:00:15.350Z,0.98
2023-12-13T11:02:50.151Z,0.40
2023-12-13T11:05:21.486Z,1.05
2023-12-13T11:07:53.093Z,1.63
2023-12-13T11:10:24.348Z,0.85
2023-12-13T11:12:53.415Z,0.70
2023-12-13T11:15:22.490Z,1.67
2023-12-13T11:17:51.666Z,0.60
2023-12-13T11:20:23.103Z,0.95
2023-12-13T11:22:57.410Z,0.70
2023-12-13T11:25:36.077Z,0.22
2023-12-13T11:28:06.117Z,0.77
2023-12-13T11:30:37.755Z,2.13
2023-12-13T11:33:12.261Z,0.80
2023-12-13T11:35:40.145Z,1.15
2023-12-13T11:38:08.725Z,1.27
2023-12-13T11:40:37.470Z,1.05
2023-12-13T11:43:05.746Z,1.20
2023-12-13T11:45:34.845Z,2.03
2023-12-13T11:48:02.787Z,1.13
2023-12-13T11:50:33.553Z,0.80
2023-12-13T11:53:03.627Z,0.82
2023-12-13T11:55:31.428Z,1.45
2023-12-13T11:57:59.522Z,1.08
2023-12-13T12:00:27.398Z,0.65
2023-12-13T12:02:56.522Z,1.10
2023-12-13T12:05:24.839Z,15.73
2023-12-13T12:07:59.612Z,7.18
2023-12-13T12:10:27.543Z,0.70
2023-12-13T12:12:55.235Z,2.80
2023-12-13T12:15:23.157Z,4.95
2023-12-13T12:17:53.315Z,1.55
2023-12-13T12:20:22.611Z,1.60
2023-12-13T12:22:50.995Z,5.03
2023-12-13T12:25:23.824Z,2.88
2023-12-13T12:27:51.611Z,5.20
2023-12-13T12:30:20.205Z,4.05
2023-12-13T12:32:48.077Z,1.30
2023-12-13T12:35:16.155Z,1.40
2023-12-13T12:37:46.142Z,1.67
2023-12-13T12:40:13.972Z,7.35
2023-12-13T12:42:43.044Z,1.20
2023-12-13T12:45:10.858Z,1.30
2023-12-13T12:47:41.123Z,3.20
2023-12-13T12:50:10.210Z,1.17
2023-12-13T12:52:40.604Z,0.57
2023-12-13T12:55:10.257Z,0.77
2023-12-13T12:57:40.540Z,3.22
2023-12-13T13:00:08.829Z,9.52
2023-12-13T13:02:36.500Z,10.38
2023-12-13T13:05:04.406Z,3.08
2023-12-13T13:07:34.496Z,1.95
2023-12-13T13:10:02.649Z,3.70
2023-12-13T13:12:34.028Z,4.05
2023-12-13T13:15:01.771Z,8.50
2023-12-13T13:17:31.707Z,3.78
2023-12-13T13:20:05.330Z,1.05
2023-12-13T13:22:33.338Z,0.40
2023-12-13T13:25:01.499Z,3.28
2023-12-13T13:27:29.567Z,0.30
2023-12-13T13:29:58.754Z,1.38
2023-12-13T13:32:27.022Z,1.65
2023-12-13T13:34:54.983Z,2.25
2023-12-13T13:37:22.790Z,6.95
2023-12-13T13:39:50.572Z,7.18
2023-12-13T13:42:20.829Z,7.35
2023-12-13T13:44:48.541Z,8.70
2023-12-13T13:47:17.862Z,9.45
2023-12-13T13:49:48.277Z,5.40
2023-12-13T13:52:16.171Z,5.40
2023-12-13T13:54:43.857Z,7.85
2023-12-13T13:57:11.852Z,4.63
2023-12-13T13:59:39.509Z,1.55
2023-12-13T14:02:07.557Z,1.80
2023-12-13T14:04:36.631Z,2.55
2023-12-13T14:07:06.877Z,2.17
2023-12-13T14:09:37.702Z,0.77
2023-12-13T14:12:05.542Z,0.82
2023-12-13T14:14:33.222Z,1.23
2023-12-13T14:17:01.106Z,0.90
2023-12-13T14:19:28.865Z,3.55
2023-12-13T14:22:00.220Z,2.40
2023-12-13T14:24:27.954Z,2.78
2023-12-13T14:26:55.667Z,4.18
2023-12-13T14:29:26.021Z,2.33
2023-12-13T14:31:57.605Z,2.33
2023-12-13T14:34:25.331Z,4.00
2023-12-13T14:36:53.056Z,2.25
2023-12-13T14:39:24.370Z,1.55
2023-12-13T14:41:52.218Z,1.63
2023-12-13T14:44:22.251Z,1.70
2023-12-13T14:46:49.993Z,1.58
2023-12-13T14:49:17.761Z,3.15
2023-12-13T14:51:46.606Z,1.08
2023-12-13T14:54:14.440Z,1.73
2023-12-13T14:56:45.899Z,2.00
2023-12-13T14:59:13.595Z,1.83
2023-12-13T15:01:42.725Z,1.00
2023-12-13T15:04:10.389Z,4.55
2023-12-13T15:06:38.068Z,3.80
2023-12-13T15:09:05.808Z,4.47
2023-12-13T15:11:33.470Z,6.78
2023-12-13T15:14:02.606Z,3.17
2023-12-13T15:16:30.360Z,1.30
2023-12-13T15:19:01.157Z,1.23
2023-12-13T15:21:31.150Z,4.63
2023-12-13T15:24:01.154Z,1.60
2023-12-13T15:26:29.009Z,2.40
2023-12-13T15:28:56.789Z,4.80
2023-12-13T15:31:26.079Z,3.30
2023-12-13T15:33:56.438Z,3.15
2023-12-13T15:36:26.618Z,3.38
2023-12-13T15:38:56.732Z,2.15
2023-12-13T15:41:24.450Z,2.60
2023-12-13T15:43:54.729Z,2.05
2023-12-13T15:46:23.249Z,2.92
2023-12-13T15:48:52.361Z,6.20
2023-12-13T15:51:20.045Z,11.50
2023-12-13T15:53:49.773Z,10.75
2023-12-13T15:56:19.779Z,17.80
2023-12-13T15:58:47.440Z,5.95
2023-12-13T16:01:18.759Z,2.80
2023-12-13T16:03:46.732Z,3.10
2023-12-13T16:06:18.064Z,1.65
2023-12-13T16:08:46.253Z,6.30
2023-12-13T16:11:14.028Z,3.20
2023-12-13T16:13:41.705Z,6.05
2023-12-13T16:16:09.741Z,4.90
2023-12-13T16:18:37.568Z,2.15
2023-12-13T16:21:05.669Z,3.55
2023-12-13T16:23:37.522Z,2.30
2023-12-13T16:26:07.549Z,1.50
2023-12-13T16:28:37.765Z,3.03
2023-12-13T16:31:05.928Z,2.13
2023-12-13T16:33:34.320Z,2.25
2023-12-13T16:36:04.443Z,1.85
2023-12-13T16:38:34.103Z,1.60
2023-12-13T16:41:03.370Z,0.30
2023-12-13T16:43:31.651Z,0.20
2023-12-13T16:46:01.681Z,0.38
2023-12-13T16:48:29.378Z,1.33
2023-12-13T16:50:57.158Z,1.15
2023-12-13T16:53:24.882Z,0.68
2023-12-13T16:55:55.821Z,0.50
2023-12-13T16:58:24.983Z,0.50
2023-12-13T17:00:57.130Z,0.43
2023-12-13T17:03:24.872Z,0.40
2023-12-13T17:05:55.200Z,1.20
2023-12-13T17:08:25.285Z,1.80
2023-12-13T17:10:55.637Z,2.08
2023-12-13T17:13:23.408Z,1.33
2023-12-13T17:15:52.474Z,2.75
2023-12-13T17:18:20.248Z,1.27
2023-12-13T17:20:48.180Z,3.97
2023-12-13T17:23:18.359Z,2.33
2023-12-13T17:25:46.612Z,4.22
2023-12-13T17:28:14.421Z,2.65
2023-12-13T17:30:44.476Z,4.18
2023-12-13T17:33:13.863Z,0.77
2023-12-13T17:35:42.912Z,0.30
2023-12-13T17:38:10.601Z,0.60
2023-12-13T17:40:38.496Z,1.90
2023-12-13T17:43:08.650Z,1.23
2023-12-13T17:45:36.693Z,0.45
2023-12-13T17:48:04.319Z,2.65
2023-12-13T17:50:33.491Z,0.70
2023-12-13T17:53:01.264Z,1.10
2023-12-13T17:55:28.980Z,0.82
2023-12-13T17:57:56.722Z,0.57
2023-12-13T18:00:30.058Z,0.90
2023-12-13T18:02:57.881Z,1.45
2023-12-13T18:05:27.888Z,2.67
2023-12-13T18:07:57.057Z,1.00
2023-12-13T18:10:24.821Z,0.47
2023-12-13T18:12:54.767Z,0.38
2023-12-13T18:15:22.480Z,0.32
2023-12-13T18:17:52.559Z,0.35
2023-12-13T18:20:22.751Z,1.35
2023-12-13T18:22:50.745Z,0.45
2023-12-13T18:25:21.645Z,0.38
2023-12-13T18:27:49.785Z,1.00
2023-12-13T18:30:17.625Z,1.52
2023-12-13T18:32:47.740Z,2.22
2023-12-13T18:35:15.527Z,3.10
2023-12-13T18:37:45.689Z,0.90
2023-12-13T18:40:13.588Z,0.93
2023-12-13T18:42:45.228Z,0.63
2023-12-13T18:45:15.377Z,1.38
2023-12-13T18:47:43.133Z,1.60
2023-12-13T18:50:12.896Z,3.20
2023-12-13T18:52:42.803Z,1.17
2023-12-13T18:55:11.834Z,1.10
2023-12-13T18:57:40.624Z,1.80
2023-12-13T19:00:13.866Z,1.80
2023-12-13T19:02:41.625Z,1.33
2023-12-13T19:05:10.247Z,1.30
2023-12-13T19:07:40.483Z,1.30
2023-12-13T19:10:11.540Z,4.10
2023-12-13T19:12:39.271Z,2.90
2023-12-13T19:15:08.021Z,2.35
2023-12-13T19:17:37.438Z,1.73
2023-12-13T19:20:05.824Z,1.80
2023-12-13T19:22:33.649Z,0.82
2023-12-13T19:25:01.311Z,1.13
2023-12-13T19:27:29.099Z,1.67
2023-12-13T19:29:56.821Z,1.42
2023-12-13T19:32:28.149Z,1.83
2023-12-13T19:34:57.618Z,3.05
2023-12-13T19:37:29.705Z,2.40
2023-12-13T19:39:57.834Z,2.20
2023-12-13T19:42:28.133Z,0.77
2023-12-13T19:44:55.814Z,0.93
2023-12-13T19:47:23.493Z,1.23
2023-12-13T19:49:54.555Z,1.02
2023-12-13T19:52:26.939Z,0.38
2023-12-13T19:54:54.662Z,0.85
2023-12-13T19:57:22.294Z,0.95
2023-12-13T19:59:50.015Z,0.60
2023-12-13T20:02:17.694Z,0.40
2023-12-13T20:04:45.588Z,2.53
2023-12-13T20:07:13.522Z,0.95
2023-12-13T20:09:42.585Z,1.48
2023-12-13T20:12:12.606Z,0.88
2023-12-13T20:14:40.661Z,0.88
2023-12-13T20:17:08.654Z,0.63
2023-12-13T20:19:36.556Z,1.27
2023-12-13T20:22:04.420Z,0.70
2023-12-13T20:24:32.157Z,0.30
2023-12-13T20:27:01.197Z,0.50
2023-12-13T20:29:31.032Z,3.35
2023-12-13T20:31:59.107Z,2.35
2023-12-13T20:34:29.466Z,1.05
2023-12-13T20:36:57.262Z,1.02
2023-12-13T20:39:27.189Z,0.65
2023-12-13T20:41:57.440Z,0.50
2023-12-13T20:44:26.553Z,0.50
2023-12-13T20:46:54.261Z,1.40
2023-12-13T20:49:24.272Z,1.05
2023-12-13T20:51:52.009Z,2.38
2023-12-13T20:54:22.389Z,0.65
2023-12-13T20:56:50.178Z,0.98
2023-12-13T20:59:17.924Z,2.28
2023-12-13T21:01:47.808Z,1.02
2023-12-13T21:04:15.532Z,1.30
2023-12-13T21:06:43.777Z,1.80
2023-12-13T21:09:11.454Z,0.60
2023-12-13T21:11:39.112Z,0.55
2023-12-13T21:14:07.074Z,0.73
2023-12-13T21:16:34.906Z,0.45
2023-12-13T21:19:04.799Z,0.60
2023-12-13T21:21:32.758Z,1.02
2023-12-13T21:24:10.507Z,0.73
2023-12-13T21:26:46.578Z,1.75
2023-12-13T21:29:14.634Z,0.75
2023-12-13T21:31:44.998Z,0.75
2023-12-13T21:34:14.059Z,1.08
2023-12-13T21:36:44.393Z,1.58
2023-12-13T21:39:12.138Z,1.55
2023-12-13T21:41:40.015Z,1.58
2023-12-13T21:44:07.888Z,1.77
2023-12-13T21:46:38.242Z,2.03
2023-12-13T21:49:06.017Z,1.63
2023-12-13T21:51:35.085Z,0.77
2023-12-13T21:54:02.861Z,0.77
2023-12-13T21:56:30.609Z,0.50
2023-12-13T21:59:01.203Z,0.35
2023-12-13T22:01:28.926Z,0.90
2023-12-13T22:04:00.974Z,0.88
2023-12-13T22:06:29.702Z,0.28
2023-12-13T22:08:58.905Z,0.60
2023-12-13T22:11:28.944Z,1.50
2023-12-13T22:13:56.698Z,1.60
2023-12-13T22:16:25.026Z,2.30
2023-12-13T22:19:10.593Z,1.80
2023-12-13T22:21:38.800Z,1.67
2023-12-13T22:24:08.238Z,1.67
2023-12-13T22:26:35.977Z,1.63
2023-12-13T22:29:03.682Z,2.05
2023-12-13T22:31:31.431Z,1.30
2023-12-13T22:33:59.110Z,1.42
2023-12-13T22:36:27.014Z,2.13
2023-12-13T22:38:57.058Z,1.80
2023-12-13T22:41:26.131Z,1.40
2023-12-13T22:43:53.836Z,0.60
2023-12-13T22:46:21.534Z,0.88
2023-12-13T22:48:49.565Z,0.65
2023-12-13T22:51:17.225Z,1.15
2023-12-13T22:53:47.355Z,1.10
2023-12-13T22:56:18.904Z,1.23
2023-12-13T22:58:50.502Z,1.52
2023-12-13T23:01:20.631Z,1.58
2023-12-13T23:03:54.648Z,1.23
2023-12-13T23:06:27.505Z,0.75
2023-12-13T23:08:57.490Z,0.88
2023-12-13T23:11:25.634Z,0.57
2023-12-13T23:13:54.788Z,0.68
2023-12-13T23:16:31.341Z,1.00
2023-12-13T23:19:03.563Z,0.80
2023-12-13T23:21:31.451Z,0.85
2023-12-13T23:23:59.192Z,1.63
2023-12-13T23:26:26.926Z,0.60
2023-12-13T23:28:56.015Z,0.43
2023-12-13T23:31:29.951Z,0.25
2023-12-13T23:34:04.285Z,0.50
2023-12-13T23:36:34.683Z,0.98
2023-12-13T23:39:02.557Z,0.90
2023-12-13T23:41:32.590Z,1.38
2023-12-13T23:44:01.708Z,0.93
2023-12-13T23:46:29.466Z,0.93
2023-12-13T23:48:58.957Z,0.77
2023-12-13T23:51:26.875Z,1.58
2023-12-13T23:53:57.720Z,1.50
2023-12-13T23:56:26.070Z,2.50
2023-12-13T23:58:53.763Z,2.35
